Latest Weather Observations for West Roebuck

IDW60801

Issued at 5:05 am WST Friday 18 April 2014 (issued every 30 minutes, with the page automatically refreshed every 10 minutes)

About weather observations | Map of weather stations | Latest weather observations for WA | Other Formats
Station Details ID: 003096 Name: WEST ROEBUCK Lat: -17.90 Lon: 122.31 Height: 32.0 m
Data from the previous 72 hours. | See also: Recent months for locations in Western Australia
Date/Time
WST
Temp
°C
App
Temp
°C
Dew
Point
Rel
Hum
%
Delta-T
°C
Wind Press
QNH
hPa
Press
MSL
hPa
Rain
since 9 am
mm
Dir
 
Spd
km/h
Gust
km/h
Spd
kts
Gust
kts
18/05:00am 19.4 - - - - ESE 11 13 6 7 - - 0.0
18/04:30am 19.8 - - - - SE 11 11 6 6 - - 0.0
18/04:00am 19.7 - - - - SE 6 9 3 5 - - 0.0
18/03:30am 20.2 - - - - SE 9 11 5 6 - - 0.0
18/03:00am 20.6 - - - - ESE 11 13 6 7 - - 0.0
18/02:30am 21.6 - - - - S 7 9 4 5 - - 0.0
18/02:00am 22.2 - - - - S 9 11 5 6 - - 0.0
18/01:30am 23.2 - - - - SSW 9 11 5 6 - - 0.0
18/01:00am 23.0 - - - - SW 9 13 5 7 - - 0.0
18/12:30am 23.3 - - - - SW 11 13 6 7 - - 0.0
18/12:00am 23.4 - - - - SW 7 11 4 6 - - 0.0
 
Date/Time
WST
Temp
°C
App
Temp
°C
Dew
Point
Rel
Hum
%
Delta-T
°C
Wind Press
QNH
hPa
Press
MSL
hPa
Rain
since 9 am
mm
Dir
 
Spd
km/h
Gust
km/h
Spd
kts
Gust
kts
17/11:30pm 23.7 - - - - WSW 11 13 6 7 - - 0.0
17/11:00pm 22.8 - - - - WSW 9 11 5 6 - - 0.0
17/10:30pm 22.4 - - - - W 11 13 6 7 - - 0.0
17/10:00pm 22.4 - - - - W 7 9 4 5 - - 0.0
17/09:30pm 23.7 - - - - W 9 11 5 6 - - 0.0
17/09:00pm 23.6 - - - - NNW 11 13 6 7 - - 0.0
17/08:30pm 24.0 - - - - NW 9 11 5 6 - - 0.0
17/08:00pm 23.7 - - - - NW 9 13 5 7 - - 0.0
17/07:30pm 25.0 - - - - NW 7 9 4 5 - - 0.0
17/07:00pm 26.3 - - - - S 9 11 5 6 - - 0.0
17/06:30pm 27.4 - - - - CALM 0 0 0 0 - - 0.0
17/06:00pm 28.4 - - - - SW 7 9 4 5 - - 0.0
17/05:30pm 30.4 - - - - S 9 11 5 6 - - 0.0
17/05:00pm 33.1 - - - - CALM 0 0 0 0 - - 0.0
17/04:30pm 34.2 - - - - ENE 7 11 4 6 - - 0.0
17/04:00pm 34.8 - - - - ENE 7 11 4 6 - - 0.0
17/03:30pm 35.0 - - - - NE 9 15 5 8 - - 0.0
17/03:00pm 34.9 - - - - E 9 13 5 7 - - 0.0
17/02:30pm 34.9 - - - - E 11 17 6 9 - - 0.0
17/02:00pm 34.6 - - - - ENE 13 24 7 13 - - 0.0
17/01:30pm 34.9 - - - - ENE 15 24 8 13 - - 0.0
17/01:00pm 35.1 - - - - E 11 17 6 9 - - 0.0
17/12:30pm 34.5 - - - - ENE 13 26 7 14 - - 0.0
17/12:00pm 34.1 - - - - E 15 24 8 13 - - 0.0
17/11:30am 33.6 - - - - E 17 28 9 15 - - 0.0
17/11:00am 32.9 - - - - E 15 22 8 12 - - 0.0
17/10:30am 31.8 - - - - E 17 24 9 13 - - 0.0
17/10:00am 30.6 - - - - E 19 30 10 16 - - 0.0
17/09:30am 29.3 - - - - E 22 32 12 17 - - 0.0
17/09:00am 28.2 - - - - E 19 24 10 13 - - 0.0
17/08:30am 27.0 - - - - E 15 22 8 12 - - 0.0
17/08:00am 25.1 - - - - E 15 20 8 11 - - 0.0
17/07:30am 23.7 - - - - E 11 17 6 9 - - 0.0
17/07:00am 22.3 - - - - ENE 11 17 6 9 - - 0.0
17/06:30am 20.3 - - - - ENE 11 13 6 7 - - 0.0
17/06:00am 19.0 - - - - E 11 13 6 7 - - 0.0
17/05:30am 19.1 - - - - ENE 11 13 6 7 - - 0.0
17/05:00am 19.0 - - - - ENE 11 11 6 6 - - 0.0
17/04:30am 19.4 - - - - ENE 9 11 5 6 - - 0.0
17/04:00am 19.9 - - - - ENE 11 13 6 7 - - 0.0
17/03:30am 19.9 - - - - ENE 11 13 6 7 - - 0.0
17/03:00am 19.6 - - - - ENE 9 11 5 6 - - 0.0
17/02:30am 19.6 - - - - ENE 11 13 6 7 - - 0.0
17/02:00am 19.8 - - - - NE 9 11 5 6 - - 0.0
17/01:30am 19.9 - - - - ENE 11 13 6 7 - - 0.0
17/01:00am 19.4 - - - - E 9 11 5 6 - - 0.0
17/12:30am 19.7 - - - - E 9 9 5 5 - - 0.0
17/12:00am 20.5 - - - - E 7 9 4 5 - - 0.0
 
Date/Time
WST
Temp
°C
App
Temp
°C
Dew
Point
Rel
Hum
%
Delta-T
°C
Wind Press
QNH
hPa
Press
MSL
hPa
Rain
since 9 am
mm
Dir
 
Spd
km/h
Gust
km/h
Spd
kts
Gust
kts
16/11:30pm 20.8 - - - - E 7 7 4 4 - - 0.0
16/11:00pm 20.9 - - - - E 9 9 5 5 - - 0.0
16/10:30pm 21.4 - - - - ESE 9 11 5 6 - - 0.0
16/10:00pm 22.4 - - - - ESE 9 13 5 7 - - 0.0
16/09:30pm 22.8 - - - - ESE 9 11 5 6 - - 0.0
16/09:00pm 23.2 - - - - ESE 9 13 5 7 - - 0.0
16/08:30pm 23.4 - - - - E 9 11 5 6 - - 0.0
16/08:00pm 23.8 - - - - ESE 11 13 6 7 - - 0.0
16/07:30pm 24.2 - - - - ESE 9 11 5 6 - - 0.0
16/07:00pm 24.9 - - - - ESE 9 11 5 6 - - 0.0
16/06:30pm 25.9 - - - - ESE 7 9 4 5 - - 0.0
16/06:00pm 26.3 - - - - ESE 7 9 4 5 - - 0.0
16/05:30pm 29.4 - - - - E 7 9 4 5 - - 0.0
16/05:00pm 31.8 - - - - ENE 7 9 4 5 - - 0.0
16/04:30pm 32.8 - - - - E 11 17 6 9 - - 0.0
16/04:00pm 33.4 - - - - E 15 24 8 13 - - 0.0
16/03:30pm 33.9 - - - - E 15 22 8 12 - - 0.0
16/03:00pm 33.9 - - - - E 17 28 9 15 - - 0.0
16/02:30pm 34.1 - - - - E 17 30 9 16 - - 0.0
16/02:00pm 34.1 - - - - E 19 28 10 15 - - 0.0
16/01:30pm 34.4 - - - - E 13 24 7 13 - - 0.0
16/01:00pm 34.1 - - - - E 15 28 8 15 - - 0.0
16/12:30pm 33.6 - - - - ENE 20 30 11 16 - - 0.0
16/12:00pm 33.8 - - - - E 17 28 9 15 - - 0.0
16/11:30am 33.1 - - - - E 22 32 12 17 - - 0.0
16/11:00am 32.2 - - - - E 20 30 11 16 - - 0.0
16/10:30am 31.5 - - - - E 20 33 11 18 - - 0.0
16/10:00am 30.5 - - - - E 20 26 11 14 - - 0.0
16/09:30am 29.7 - - - - E 17 24 9 13 - - 0.0
16/09:00am 28.3 - - - - E 17 26 9 14 - - 0.0
16/08:30am 26.6 - - - - E 17 24 9 13 - - 0.0
16/08:00am 24.3 - - - - E 15 20 8 11 - - 0.0
16/07:30am 21.8 - - - - E 9 13 5 7 - - 0.0
16/07:00am 19.6 - - - - ESE 9 13 5 7 - - 0.0
16/06:30am 17.6 - - - - ESE 11 13 6 7 - - 0.0
16/06:00am 15.9 - - - - ESE 11 13 6 7 - - 0.0
16/05:30am 15.8 - - - - ESE 11 11 6 6 - - 0.0
16/05:00am 16.3 - - - - ESE 9 11 5 6 - - 0.0
16/04:30am 17.2 - - - - E 9 11 5 6 - - 0.0
16/04:00am 18.5 - - - - E 11 13 6 7 - - 0.0
16/03:30am 19.0 - - - - ENE 9 13 5 7 - - 0.0
16/03:00am 19.6 - - - - ENE 11 13 6 7 - - 0.0
16/02:30am 20.2 - - - - ENE 9 13 5 7 - - 0.0
16/02:00am 19.9 - - - - ENE 11 13 6 7 - - 0.0
16/01:30am 19.1 - - - - ENE 9 11 5 6 - - 0.0
16/01:00am 20.0 - - - - ENE 11 13 6 7 - - 0.0
16/12:30am 20.3 - - - - ENE 9 13 5 7 - - 0.0
16/12:00am 21.1 - - - - ENE 9 11 5 6 - - 0.0
 
Date/Time
WST
Temp
°C
App
Temp
°C
Dew
Point
Rel
Hum
%
Delta-T
°C
Wind Press
QNH
hPa
Press
MSL
hPa
Rain
since 9 am
mm
Dir
 
Spd
km/h
Gust
km/h
Spd
kts
Gust
kts
15/11:30pm 21.4 - - - - ENE 11 13 6 7 - - 0.0
15/11:00pm 21.5 - - - - ENE 7 9 4 5 - - 0.0
15/10:30pm 21.5 - - - - SSE 7 9 4 5 - - 0.0
15/10:00pm 23.0 - - - - SE 6 9 3 5 - - 0.0
15/09:30pm 23.3 - - - - SSE 11 15 6 8 - - 0.0
15/09:00pm 23.5 - - - - SSW 11 13 6 7 - - 0.0
15/08:30pm 24.5 - - - - SSW 9 11 5 6 - - 0.0
15/08:00pm 24.7 - - - - SSW 11 13 6 7 - - 0.0
15/07:30pm 25.0 - - - - SW 11 13 6 7 - - 0.0
15/07:00pm 25.4 - - - - SSW 9 11 5 6 - - 0.0
15/06:30pm 26.7 - - - - SSW 9 11 5 6 - - 0.0
15/06:00pm 27.4 - - - - S 7 11 4 6 - - 0.0
15/05:30pm 29.9 - - - - SSE 7 9 4 5 - - 0.0
15/05:00pm 31.7 - - - - E 7 9 4 5 - - 0.0
15/04:30pm 32.8 - - - - E 11 17 6 9 - - 0.0
15/04:00pm 33.4 - - - - E 13 19 7 10 - - 0.0
15/03:30pm 33.5 - - - - ESE 13 20 7 11 - - 0.0
15/03:00pm 33.7 - - - - E 9 13 5 7 - - 0.0
15/02:30pm 33.9 - - - - SE 15 22 8 12 - - 0.0
15/02:00pm 33.9 - - - - ESE 13 22 7 12 - - 0.0
15/01:30pm 33.5 - - - - E 15 24 8 13 - - 0.0
15/01:00pm 33.5 - - - - E 17 26 9 14 - - 0.0
15/12:30pm 32.9 - - - - E 19 28 10 15 - - 0.0
15/12:00pm 33.1 - - - - E 17 28 9 15 - - 0.0
15/11:30am 32.3 - - - - E 19 26 10 14 - - 0.0
15/11:00am 31.7 - - - - E 20 30 11 16 - - 0.0
15/10:30am 30.8 - - - - E 20 30 11 16 - - 0.0
15/10:00am 30.1 - - - - E 20 30 11 16 - - 0.0
15/09:30am 29.8 - - - - E 19 28 10 15 - - 0.0
15/09:00am 28.4 - - - - E 19 28 10 15 - - 0.0
15/08:30am 26.8 - - - - E 19 32 10 17 - - 0.0
15/08:00am 25.6 - - - - E 17 26 9 14 - - 0.0
15/07:30am 24.0 - - - - E 13 20 7 11 - - 0.0
15/07:00am 22.2 - - - - E 13 19 7 10 - - 0.0
15/06:30am 20.0 - - - - E 13 19 7 10 - - 0.0
15/06:00am 18.8 - - - - E 11 15 6 8 - - 0.0
15/05:30am 18.8 - - - - E 11 13 6 7 - - 0.0

Other Formats:

Comma delimited format used in spreadsheet applications
http://www.bom.gov.au/fwo/IDW60801/IDW60801.95204.axf

JavaScript Object Notation format (JSON) in row-major order
http://www.bom.gov.au/fwo/IDW60801/IDW60801.95204.json